Terminal Aerodrome Forecast
Issued by NWS Caribou, ME

Current Version | Previous Version | Text Only | Print | Product List | Glossary On
Versions: 1 2 3 4 5 6 7 8 9 10 11 12 13 14 15 16 17
247
FTUS41 KCAR 171727 AAA
TAFBGR
TAF AMD
KBGR 171727Z 1717/1818 29006KT P6SM FEW060 SCT100
     FM180300 21008KT P6SM BKN045
     FM180800 23006KT P6SM SCT040
     FM181400 27008KT P6SM SKC=

USA.gov is the U.S. government's official web portal to all federal, state and local government web resources and services.